sensor_id;sensor_type;location;lat;lon;timestamp;pressure;altitude;pressure_sealevel;temperature;humidity
23176;BME280;19910;42.652;23.332;2023-04-19T00:02:26;94222.91;;;9.84;86.12
23176;BME280;19910;42.652;23.332;2023-04-19T00:04:54;94207.06;;;9.94;86.16
23176;BME280;19910;42.652;23.332;2023-04-19T00:07:21;94218.84;;;10.11;86.16
23176;BME280;19910;42.652;23.332;2023-04-19T00:09:48;94218.13;;;10.14;86.19
23176;BME280;19910;42.652;23.332;2023-04-19T00:12:14;94210.94;;;10.18;86.41
23176;BME280;19910;42.652;23.332;2023-04-19T00:14:41;94208.44;;;10.13;86.65
23176;BME280;19910;42.652;23.332;2023-04-19T00:17:08;94201.41;;;10.20;85.49
23176;BME280;19910;42.652;23.332;2023-04-19T00:19:36;94214.69;;;10.25;85.23
23176;BME280;19910;42.652;23.332;2023-04-19T00:22:05;94203.88;;;10.25;85.25
23176;BME280;19910;42.652;23.332;2023-04-19T00:24:34;94203.47;;;10.15;87.25
23176;BME280;19910;42.652;23.332;2023-04-19T00:27:01;94204.44;;;9.98;87.10
23176;BME280;19910;42.652;23.332;2023-04-19T00:29:28;94195.34;;;10.03;87.04
23176;BME280;19910;42.652;23.332;2023-04-19T00:31:55;94195.09;;;9.95;86.87
23176;BME280;19910;42.652;23.332;2023-04-19T00:34:22;94193.09;;;10.05;86.04
23176;BME280;19910;42.652;23.332;2023-04-19T00:36:48;94198.06;;;10.15;86.05
23176;BME280;19910;42.652;23.332;2023-04-19T00:39:16;94191.38;;;10.33;85.81
23176;BME280;19910;42.652;23.332;2023-04-19T00:41:43;94187.25;;;10.15;86.22
23176;BME280;19910;42.652;23.332;2023-04-19T00:44:10;94196.50;;;10.14;85.95
23176;BME280;19910;42.652;23.332;2023-04-19T00:46:38;94195.69;;;10.13;85.96
23176;BME280;19910;42.652;23.332;2023-04-19T00:49:05;94197.19;;;10.11;86.04
23176;BME280;19910;42.652;23.332;2023-04-19T00:51:32;94183.19;;;10.09;86.48
23176;BME280;19910;42.652;23.332;2023-04-19T00:53:58;94195.59;;;10.10;86.03
23176;BME280;19910;42.652;23.332;2023-04-19T00:56:28;94191.78;;;10.11;86.20
23176;BME280;19910;42.652;23.332;2023-04-19T00:58:55;94198.28;;;9.97;86.11
23176;BME280;19910;42.652;23.332;2023-04-19T01:01:22;94191.81;;;9.90;86.73
23176;BME280;19910;42.652;23.332;2023-04-19T01:03:49;94191.69;;;9.86;86.67
23176;BME280;19910;42.652;23.332;2023-04-19T01:06:16;94188.50;;;9.84;86.74
23176;BME280;19910;42.652;23.332;2023-04-19T01:08:43;94185.38;;;9.82;87.35
23176;BME280;19910;42.652;23.332;2023-04-19T01:11:10;94179.34;;;9.65;87.78
23176;BME280;19910;42.652;23.332;2023-04-19T01:13:38;94182.50;;;9.67;87.94
23176;BME280;19910;42.652;23.332;2023-04-19T01:16:05;94168.25;;;9.57;87.63
23176;BME280;19910;42.652;23.332;2023-04-19T01:18:32;94176.72;;;9.56;88.27
23176;BME280;19910;42.652;23.332;2023-04-19T01:21:01;94179.06;;;9.57;88.38
23176;BME280;19910;42.652;23.332;2023-04-19T01:23:30;94177.22;;;9.70;88.22
23176;BME280;19910;42.652;23.332;2023-04-19T01:25:56;94179.25;;;9.73;87.36
23176;BME280;19910;42.652;23.332;2023-04-19T01:28:25;94184.75;;;9.65;87.79
23176;BME280;19910;42.652;23.332;2023-04-19T01:30:52;94182.78;;;9.53;87.47
23176;BME280;19910;42.652;23.332;2023-04-19T01:33:19;94180.91;;;9.45;87.47
23176;BME280;19910;42.652;23.332;2023-04-19T01:35:46;94180.22;;;9.36;88.00
23176;BME280;19910;42.652;23.332;2023-04-19T01:38:13;94186.50;;;9.27;88.46
23176;BME280;19910;42.652;23.332;2023-04-19T01:40:42;94171.13;;;9.19;89.27
23176;BME280;19910;42.652;23.332;2023-04-19T01:43:12;94181.88;;;9.28;89.07
23176;BME280;19910;42.652;23.332;2023-04-19T01:45:39;94179.03;;;9.24;89.50
23176;BME280;19910;42.652;23.332;2023-04-19T01:48:06;94181.66;;;9.12;90.04
23176;BME280;19910;42.652;23.332;2023-04-19T01:50:33;94179.88;;;9.16;89.84
23176;BME280;19910;42.652;23.332;2023-04-19T01:52:59;94175.72;;;9.19;90.81
23176;BME280;19910;42.652;23.332;2023-04-19T01:55:26;94172.91;;;9.15;90.70
23176;BME280;19910;42.652;23.332;2023-04-19T01:57:54;94173.16;;;9.22;90.52
23176;BME280;19910;42.652;23.332;2023-04-19T02:00:21;94171.34;;;9.14;90.64
23176;BME280;19910;42.652;23.332;2023-04-19T02:02:48;94169.22;;;8.99;91.62
23176;BME280;19910;42.652;23.332;2023-04-19T02:05:15;94181.31;;;8.93;91.91
23176;BME280;19910;42.652;23.332;2023-04-19T02:07:42;94168.03;;;8.88;92.43
23176;BME280;19910;42.652;23.332;2023-04-19T02:10:09;94176.56;;;8.90;92.84
23176;BME280;19910;42.652;23.332;2023-04-19T02:12:36;94167.09;;;8.84;92.95
23176;BME280;19910;42.652;23.332;2023-04-19T02:15:06;94173.44;;;8.88;93.40
23176;BME280;19910;42.652;23.332;2023-04-19T02:17:33;94178.16;;;8.91;93.23
23176;BME280;19910;42.652;23.332;2023-04-19T02:20:00;94176.44;;;8.86;93.72
23176;BME280;19910;42.652;23.332;2023-04-19T02:22:28;94174.34;;;8.92;93.54
23176;BME280;19910;42.652;23.332;2023-04-19T02:24:55;94174.34;;;8.92;93.72
23176;BME280;19910;42.652;23.332;2023-04-19T02:27:22;94168.03;;;8.88;93.13
23176;BME280;19910;42.652;23.332;2023-04-19T02:29:49;94171.69;;;8.83;93.58
23176;BME280;19910;42.652;23.332;2023-04-19T02:32:17;94163.63;;;8.75;94.14
23176;BME280;19910;42.652;23.332;2023-04-19T02:34:44;94156.66;;;8.74;93.81
23176;BME280;19910;42.652;23.332;2023-04-19T02:37:10;94160.59;;;8.76;94.00
23176;BME280;19910;42.652;23.332;2023-04-19T02:39:37;94164.56;;;8.79;94.12
23176;BME280;19910;42.652;23.332;2023-04-19T02:42:06;94166.16;;;8.80;94.32
23176;BME280;19910;42.652;23.332;2023-04-19T02:44:32;94163.78;;;8.78;93.70
23176;BME280;19910;42.652;23.332;2023-04-19T02:46:59;94160.59;;;8.76;93.98
23176;BME280;19910;42.652;23.332;2023-04-19T02:49:29;94168.38;;;8.78;94.13
23176;BME280;19910;42.652;23.332;2023-04-19T02:51:58;94161.41;;;8.77;93.79
23176;BME280;19910;42.652;23.332;2023-04-19T02:54:25;94169.00;;;8.83;93.68
23176;BME280;19910;42.652;23.332;2023-04-19T02:56:52;94165.66;;;8.86;93.06
23176;BME280;19910;42.652;23.332;2023-04-19T02:59:19;94166.78;;;8.77;92.82
23176;BME280;19910;42.652;23.332;2023-04-19T03:01:46;94159.63;;;8.81;92.81
23176;BME280;19910;42.652;23.332;2023-04-19T03:04:12;94169.47;;;8.85;92.75
23176;BME280;19910;42.652;23.332;2023-04-19T03:06:40;94173.31;;;8.76;92.82
23176;BME280;19910;42.652;23.332;2023-04-19T03:09:08;94175.75;;;8.69;93.37
23176;BME280;19910;42.652;23.332;2023-04-19T03:11:35;94167.19;;;8.67;93.65
23176;BME280;19910;42.652;23.332;2023-04-19T03:14:03;94169.16;;;8.58;93.45
23176;BME280;19910;42.652;23.332;2023-04-19T03:16:29;94175.28;;;8.67;93.73
23176;BME280;19910;42.652;23.332;2023-04-19T03:18:56;94167.81;;;8.64;93.35
23176;BME280;19910;42.652;23.332;2023-04-19T03:21:23;94158.75;;;8.68;93.38
23176;BME280;19910;42.652;23.332;2023-04-19T03:23:53;94165.34;;;8.59;93.50
23176;BME280;19910;42.652;23.332;2023-04-19T03:26:20;94162.81;;;8.53;93.61
23176;BME280;19910;42.652;23.332;2023-04-19T03:28:47;94162.16;;;8.57;93.72
23176;BME280;19910;42.652;23.332;2023-04-19T03:31:13;94167.56;;;8.57;93.55
23176;BME280;19910;42.652;23.332;2023-04-19T03:33:40;94157.41;;;8.53;93.25
23176;BME280;19910;42.652;23.332;2023-04-19T03:36:08;94167.41;;;8.53;93.43
23176;BME280;19910;42.652;23.332;2023-04-19T03:38:35;94167.56;;;8.57;93.58
23176;BME280;19910;42.652;23.332;2023-04-19T03:41:04;94164.25;;;8.51;94.08
23176;BME280;19910;42.652;23.332;2023-04-19T03:43:30;94171.75;;;8.45;93.75
23176;BME280;19910;42.652;23.332;2023-04-19T03:45:57;94163.09;;;8.61;93.48
23176;BME280;19910;42.652;23.332;2023-04-19T03:48:24;94159.00;;;8.54;93.38
23176;BME280;19910;42.652;23.332;2023-04-19T03:50:52;94160.28;;;8.48;93.96
23176;BME280;19910;42.652;23.332;2023-04-19T03:53:19;94160.50;;;8.43;93.98
23176;BME280;19910;42.652;23.332;2023-04-19T03:55:45;94159.06;;;8.37;94.14
23176;BME280;19910;42.652;23.332;2023-04-19T03:58:13;94153.53;;;8.34;94.32
23176;BME280;19910;42.652;23.332;2023-04-19T04:00:40;94157.50;;;8.36;94.28
23176;BME280;19910;42.652;23.332;2023-04-19T04:03:07;94161.19;;;8.32;94.44
23176;BME280;19910;42.652;23.332;2023-04-19T04:05:34;94159.72;;;8.34;94.23
23176;BME280;19910;42.652;23.332;2023-04-19T04:08:01;94145.78;;;8.24;94.19
23176;BME280;19910;42.652;23.332;2023-04-19T04:10:28;94160.03;;;8.41;93.93
23176;BME280;19910;42.652;23.332;2023-04-19T04:12:55;94157.41;;;8.53;93.90
23176;BME280;19910;42.652;23.332;2023-04-19T04:15:23;94154.72;;;8.53;93.32
23176;BME280;19910;42.652;23.332;2023-04-19T04:17:50;94161.78;;;8.67;92.44
23176;BME280;19910;42.652;23.332;2023-04-19T04:20:16;94163.63;;;8.75;92.34
23176;BME280;19910;42.652;23.332;2023-04-19T04:22:43;94173.78;;;8.78;91.90
23176;BME280;19910;42.652;23.332;2023-04-19T04:25:11;94170.63;;;8.76;92.00
23176;BME280;19910;42.652;23.332;2023-04-19T04:27:40;94170.63;;;8.76;92.07
23176;BME280;19910;42.652;23.332;2023-04-19T04:30:08;94171.09;;;8.78;92.07
23176;BME280;19910;42.652;23.332;2023-04-19T04:32:37;94168.94;;;8.92;91.79
23176;BME280;19910;42.652;23.332;2023-04-19T04:35:06;94174.91;;;8.77;91.72
23176;BME280;19910;42.652;23.332;2023-04-19T04:37:34;94177.50;;;8.65;91.83
23176;BME280;19910;42.652;23.332;2023-04-19T04:40:01;94179.41;;;8.64;92.20
23176;BME280;19910;42.652;23.332;2023-04-19T04:42:29;94176.59;;;8.61;92.26
23176;BME280;19910;42.652;23.332;2023-04-19T04:44:57;94188.63;;;8.63;92.40
23176;BME280;19910;42.652;23.332;2023-04-19T04:47:30;94182.66;;;8.58;92.35
23176;BME280;19910;42.652;23.332;2023-04-19T04:49:58;94178.63;;;8.64;92.21
23176;BME280;19910;42.652;23.332;2023-04-19T04:52:28;94175.66;;;8.57;91.82
23176;BME280;19910;42.652;23.332;2023-04-19T04:54:55;94182.00;;;8.61;92.03
23176;BME280;19910;42.652;23.332;2023-04-19T04:57:21;94177.97;;;8.67;91.70
23176;BME280;19910;42.652;23.332;2023-04-19T04:59:48;94179.72;;;8.71;91.64
23176;BME280;19910;42.652;23.332;2023-04-19T05:02:15;94174.16;;;8.68;91.49
23176;BME280;19910;42.652;23.332;2023-04-19T05:04:42;94177.34;;;8.70;91.21
23176;BME280;19910;42.652;23.332;2023-04-19T05:07:11;94187.75;;;8.80;91.69
23176;BME280;19910;42.652;23.332;2023-04-19T05:09:37;94185.34;;;8.87;90.93
23176;BME280;19910;42.652;23.332;2023-04-19T05:12:05;94178.72;;;8.76;90.86
23176;BME280;19910;42.652;23.332;2023-04-19T05:14:32;94184.31;;;8.71;91.12
23176;BME280;19910;42.652;23.332;2023-04-19T05:16:58;94189.34;;;8.81;91.13
23176;BME280;19910;42.652;23.332;2023-04-19T05:19:25;94187.50;;;8.73;90.98
23176;BME280;19910;42.652;23.332;2023-04-19T05:21:52;94198.06;;;8.86;91.34
23176;BME280;19910;42.652;23.332;2023-04-19T05:24:20;94197.66;;;8.97;90.30
23176;BME280;19910;42.652;23.332;2023-04-19T05:26:47;94196.59;;;8.89;90.79
23176;BME280;19910;42.652;23.332;2023-04-19T05:29:14;94190.53;;;8.92;90.98
23176;BME280;19910;42.652;23.332;2023-04-19T05:31:41;94179.09;;;8.95;90.41
23176;BME280;19910;42.652;23.332;2023-04-19T05:34:07;94192.81;;;9.11;90.09
23176;BME280;19910;42.652;23.332;2023-04-19T05:36:34;94190.03;;;9.19;89.59
23176;BME280;19910;42.652;23.332;2023-04-19T05:39:01;94182.78;;;9.11;89.30
23176;BME280;19910;42.652;23.332;2023-04-19T05:41:29;94193.06;;;8.97;89.82
23176;BME280;19910;42.652;23.332;2023-04-19T05:43:56;94193.75;;;9.15;90.04
23176;BME280;19910;42.652;23.332;2023-04-19T05:46:23;94186.34;;;9.45;88.63
23176;BME280;19910;42.652;23.332;2023-04-19T05:48:50;94185.78;;;9.72;88.00
23176;BME280;19910;42.652;23.332;2023-04-19T05:51:17;94192.19;;;10.13;86.19
23176;BME280;19910;42.652;23.332;2023-04-19T05:53:44;94183.41;;;10.16;85.42
23176;BME280;19910;42.652;23.332;2023-04-19T05:56:10;94189.28;;;10.18;84.99
23176;BME280;19910;42.652;23.332;2023-04-19T05:58:39;94191.69;;;9.86;86.15
23176;BME280;19910;42.652;23.332;2023-04-19T06:01:05;94195.19;;;10.20;85.61
23176;BME280;19910;42.652;23.332;2023-04-19T06:03:32;94194.91;;;10.13;85.13
23176;BME280;19910;42.652;23.332;2023-04-19T06:05:59;94198.56;;;9.84;86.62
23176;BME280;19910;42.652;23.332;2023-04-19T06:08:26;94197.84;;;9.75;86.73
23176;BME280;19910;42.652;23.332;2023-04-19T06:10:53;94196.69;;;9.96;86.26
23176;BME280;19910;42.652;23.332;2023-04-19T06:13:20;94202.59;;;10.11;85.23
23176;BME280;19910;42.652;23.332;2023-04-19T06:15:49;94196.91;;;9.91;85.33
23176;BME280;19910;42.652;23.332;2023-04-19T06:18:16;94195.59;;;10.10;85.59
23176;BME280;19910;42.652;23.332;2023-04-19T06:20:42;94196.78;;;10.21;84.76
23176;BME280;19910;42.652;23.332;2023-04-19T06:23:09;94196.34;;;10.31;85.04
23176;BME280;19910;42.652;23.332;2023-04-19T06:25:37;94206.81;;;9.99;85.23
23176;BME280;19910;42.652;23.332;2023-04-19T06:28:04;94197.91;;;10.20;84.88
23176;BME280;19910;42.652;23.332;2023-04-19T06:30:31;94203.94;;;10.17;84.46
23176;BME280;19910;42.652;23.332;2023-04-19T06:32:59;94202.53;;;10.19;84.36
23176;BME280;19910;42.652;23.332;2023-04-19T06:35:26;94193.63;;;10.19;83.95
23176;BME280;19910;42.652;23.332;2023-04-19T06:37:53;94195.69;;;10.46;82.40
23176;BME280;19910;42.652;23.332;2023-04-19T06:40:20;94207.19;;;10.55;82.61
23176;BME280;19910;42.652;23.332;2023-04-19T06:42:47;94205.19;;;10.89;81.56
23176;BME280;19910;42.652;23.332;2023-04-19T06:45:14;94203.94;;;10.86;81.00
23176;BME280;19910;42.652;23.332;2023-04-19T06:47:40;94205.59;;;11.15;80.21
23176;BME280;19910;42.652;23.332;2023-04-19T06:50:09;94201.94;;;11.48;78.83
23176;BME280;19910;42.652;23.332;2023-04-19T06:52:37;94194.59;;;11.76;77.35
23176;BME280;19910;42.652;23.332;2023-04-19T06:55:04;94205.34;;;11.85;77.35
23176;BME280;19910;42.652;23.332;2023-04-19T06:57:31;94208.50;;;11.74;77.55
23176;BME280;19910;42.652;23.332;2023-04-19T06:59:58;94201.31;;;12.38;75.28
23176;BME280;19910;42.652;23.332;2023-04-19T07:02:25;94201.25;;;12.50;74.36
23176;BME280;19910;42.652;23.332;2023-04-19T07:04:52;94206.06;;;12.72;73.80
23176;BME280;19910;42.652;23.332;2023-04-19T07:07:20;94200.34;;;13.09;72.18
23176;BME280;19910;42.652;23.332;2023-04-19T07:09:47;94201.53;;;13.27;71.80
23176;BME280;19910;42.652;23.332;2023-04-19T07:12:14;94201.72;;;13.34;71.87
23176;BME280;19910;42.652;23.332;2023-04-19T07:14:41;94206.31;;;12.99;71.64
23176;BME280;19910;42.652;23.332;2023-04-19T07:17:07;94199.69;;;12.65;73.07
23176;BME280;19910;42.652;23.332;2023-04-19T07:19:34;94207.19;;;12.40;72.75
23176;BME280;19910;42.652;23.332;2023-04-19T07:22:01;94202.59;;;12.13;73.62
23176;BME280;19910;42.652;23.332;2023-04-19T07:24:31;94209.47;;;11.94;75.26
23176;BME280;19910;42.652;23.332;2023-04-19T07:26:58;94214.94;;;11.82;75.80
23176;BME280;19910;42.652;23.332;2023-04-19T07:29:26;94214.38;;;12.48;75.00
23176;BME280;19910;42.652;23.332;2023-04-19T07:31:53;94203.88;;;12.62;72.50
23176;BME280;19910;42.652;23.332;2023-04-19T07:34:20;94204.47;;;13.19;72.13
23176;BME280;19910;42.652;23.332;2023-04-19T07:36:46;94208.03;;;13.38;70.99
23176;BME280;19910;42.652;23.332;2023-04-19T07:39:13;94211.22;;;12.46;72.56
23176;BME280;19910;42.652;23.332;2023-04-19T07:41:42;94206.16;;;12.60;72.96
23176;BME280;19910;42.652;23.332;2023-04-19T07:44:09;94190.53;;;12.26;73.83
23176;BME280;19910;42.652;23.332;2023-04-19T07:46:38;94205.38;;;12.75;72.97
23176;BME280;19910;42.652;23.332;2023-04-19T07:49:05;94200.56;;;12.85;72.20
23176;BME280;19910;42.652;23.332;2023-04-19T07:51:31;94208.78;;;12.41;72.82
23176;BME280;19910;42.652;23.332;2023-04-19T07:53:58;94215.44;;;12.00;75.03
23176;BME280;19910;42.652;23.332;2023-04-19T07:56:25;94210.88;;;12.63;73.81
23176;BME280;19910;42.652;23.332;2023-04-19T07:58:53;94209.41;;;12.97;73.13
23176;BME280;19910;42.652;23.332;2023-04-19T08:01:20;94209.09;;;12.24;74.34
23176;BME280;19910;42.652;23.332;2023-04-19T08:03:47;94199.84;;;12.56;73.65
23176;BME280;19910;42.652;23.332;2023-04-19T08:06:14;94208.09;;;12.75;73.10
23176;BME280;19910;42.652;23.332;2023-04-19T08:08:42;94203.91;;;13.13;72.77
23176;BME280;19910;42.652;23.332;2023-04-19T08:11:09;94206.69;;;12.50;73.14
23176;BME280;19910;42.652;23.332;2023-04-19T08:13:36;94203.44;;;12.92;72.71
23176;BME280;19910;42.652;23.332;2023-04-19T08:16:04;94208.59;;;12.97;72.25
23176;BME280;19910;42.652;23.332;2023-04-19T08:18:32;94199.13;;;13.06;73.08
23176;BME280;19910;42.652;23.332;2023-04-19T08:20:59;94206.13;;;13.07;72.00
23176;BME280;19910;42.652;23.332;2023-04-19T08:23:26;94204.56;;;12.59;72.85
23176;BME280;19910;42.652;23.332;2023-04-19T08:25:53;94214.47;;;12.36;73.89
23176;BME280;19910;42.652;23.332;2023-04-19T08:28:20;94212.31;;;12.57;72.85
23176;BME280;19910;42.652;23.332;2023-04-19T08:30:47;94199.84;;;12.56;73.87
23176;BME280;19910;42.652;23.332;2023-04-19T08:33:16;94189.69;;;12.53;74.03
23176;BME280;19910;42.652;23.332;2023-04-19T08:35:42;94203.16;;;12.97;72.33
23176;BME280;19910;42.652;23.332;2023-04-19T08:38:10;94195.50;;;13.02;71.55
23176;BME280;19910;42.652;23.332;2023-04-19T08:40:43;94201.59;;;12.96;72.28
23176;BME280;19910;42.652;23.332;2023-04-19T08:43:11;94183.59;;;12.91;72.42
23176;BME280;19910;42.652;23.332;2023-04-19T08:45:38;94193.19;;;12.54;72.39
23176;BME280;19910;42.652;23.332;2023-04-19T08:48:07;94189.50;;;12.77;71.93
23176;BME280;19910;42.652;23.332;2023-04-19T08:50:37;94197.44;;;13.02;71.53
23176;BME280;19910;42.652;23.332;2023-04-19T08:53:06;94192.81;;;13.18;70.59
23176;BME280;19910;42.652;23.332;2023-04-19T08:55:33;94189.47;;;13.09;71.25
23176;BME280;19910;42.652;23.332;2023-04-19T08:58:02;94189.81;;;13.23;69.89
23176;BME280;19910;42.652;23.332;2023-04-19T09:00:29;94183.69;;;12.95;71.36
23176;BME280;19910;42.652;23.332;2023-04-19T09:02:57;94181.53;;;12.69;71.84
23176;BME280;19910;42.652;23.332;2023-04-19T09:05:23;94184.91;;;13.48;70.61
23176;BME280;19910;42.652;23.332;2023-04-19T09:07:52;94178.03;;;14.12;69.75
23176;BME280;19910;42.652;23.332;2023-04-19T09:10:19;94170.63;;;14.77;66.38
23176;BME280;19910;42.652;23.332;2023-04-19T09:13:00;94168.94;;;14.04;66.73
23176;BME280;19910;42.652;23.332;2023-04-19T09:15:35;94173.38;;;12.85;70.05
23176;BME280;19910;42.652;23.332;2023-04-19T09:18:04;94169.53;;;12.54;71.68
23176;BME280;19910;42.652;23.332;2023-04-19T09:20:35;94176.94;;;13.20;69.91
23176;BME280;19910;42.652;23.332;2023-04-19T09:23:04;94162.75;;;13.30;68.02
23176;BME280;19910;42.652;23.332;2023-04-19T09:25:32;94162.97;;;13.06;68.47
23176;BME280;19910;42.652;23.332;2023-04-19T09:28:08;94161.19;;;13.68;67.89
23176;BME280;19910;42.652;23.332;2023-04-19T09:30:35;94167.63;;;14.17;66.85
23176;BME280;19910;42.652;23.332;2023-04-19T09:33:02;94172.38;;;14.01;67.18
23176;BME280;19910;42.652;23.332;2023-04-19T09:35:38;94172.84;;;13.65;67.68
23176;BME280;19910;42.652;23.332;2023-04-19T09:38:07;94157.22;;;13.62;68.40
23176;BME280;19910;42.652;23.332;2023-04-19T09:40:34;94163.38;;;13.78;66.58
23176;BME280;19910;42.652;23.332;2023-04-19T09:43:01;94160.63;;;13.97;66.99
23176;BME280;19910;42.652;23.332;2023-04-19T09:45:38;94146.66;;;14.41;65.79
23176;BME280;19910;42.652;23.332;2023-04-19T09:48:06;94163.66;;;13.92;66.78
23176;BME280;19910;42.652;23.332;2023-04-19T09:50:34;94154.72;;;14.37;65.69
23176;BME280;19910;42.652;23.332;2023-04-19T09:53:04;94145.69;;;14.10;65.69
23176;BME280;19910;42.652;23.332;2023-04-19T09:55:33;94149.00;;;14.00;66.64
23176;BME280;19910;42.652;23.332;2023-04-19T09:58:02;94146.19;;;13.74;66.52
23176;BME280;19910;42.652;23.332;2023-04-19T10:00:29;94142.78;;;14.22;65.13
23176;BME280;19910;42.652;23.332;2023-04-19T10:02:56;94139.53;;;14.13;64.59
23176;BME280;19910;42.652;23.332;2023-04-19T10:05:23;94130.75;;;14.43;64.53
23176;BME280;19910;42.652;23.332;2023-04-19T10:07:51;94131.16;;;14.45;64.25
23176;BME280;19910;42.652;23.332;2023-04-19T10:10:22;94139.81;;;14.08;65.67
23176;BME280;19910;42.652;23.332;2023-04-19T10:12:53;94137.69;;;13.98;65.96
23176;BME280;19910;42.652;23.332;2023-04-19T10:15:21;94134.09;;;14.13;65.54
23176;BME280;19910;42.652;23.332;2023-04-19T10:17:49;94132.03;;;14.30;63.38
23176;BME280;19910;42.652;23.332;2023-04-19T10:20:20;94128.28;;;14.15;62.93
23176;BME280;19910;42.652;23.332;2023-04-19T10:22:48;94134.38;;;14.08;63.62
23176;BME280;19910;42.652;23.332;2023-04-19T10:25:16;94119.91;;;14.04;62.92
23176;BME280;19910;42.652;23.332;2023-04-19T10:27:43;94117.66;;;15.05;62.37
23176;BME280;19910;42.652;23.332;2023-04-19T10:30:18;94114.56;;;15.06;61.48
23176;BME280;19910;42.652;23.332;2023-04-19T10:32:51;94127.38;;;14.76;61.91
23176;BME280;19910;42.652;23.332;2023-04-19T10:35:19;94112.53;;;14.28;63.93
23176;BME280;19910;42.652;23.332;2023-04-19T10:38:03;94119.44;;;14.67;63.48
23176;BME280;19910;42.652;23.332;2023-04-19T10:40:53;94120.16;;;14.64;63.07
23176;BME280;19910;42.652;23.332;2023-04-19T10:43:21;94112.81;;;14.42;63.01
23176;BME280;19910;42.652;23.332;2023-04-19T10:45:50;94095.13;;;14.55;62.27
23176;BME280;19910;42.652;23.332;2023-04-19T10:48:38;94107.09;;;15.00;62.98
23176;BME280;19910;42.652;23.332;2023-04-19T10:51:11;94096.34;;;15.40;61.32
23176;BME280;19910;42.652;23.332;2023-04-19T10:53:43;94096.16;;;15.26;60.32
23176;BME280;19910;42.652;23.332;2023-04-19T10:56:11;94076.50;;;15.43;60.23
23176;BME280;19910;42.652;23.332;2023-04-19T10:59:14;94094.75;;;14.83;61.64
23176;BME280;19910;42.652;23.332;2023-04-19T11:01:56;94092.03;;;15.39;61.33
23176;BME280;19910;42.652;23.332;2023-04-19T11:07:37;94094.91;;;14.67;61.92
23176;BME280;19910;42.652;23.332;2023-04-19T11:10:06;94094.69;;;14.79;61.83
23176;BME280;19910;42.652;23.332;2023-04-19T11:12:33;94090.19;;;14.90;60.28
23176;BME280;19910;42.652;23.332;2023-04-19T11:15:00;94080.84;;;14.91;60.51
23176;BME280;19910;42.652;23.332;2023-04-19T11:17:30;94098.50;;;15.27;60.54
23176;BME280;19910;42.652;23.332;2023-04-19T11:19:58;94090.44;;;15.08;59.38
23176;BME280;19910;42.652;23.332;2023-04-19T11:22:29;94088.94;;;15.11;59.65
23176;BME280;19910;42.652;23.332;2023-04-19T11:25:04;94084.03;;;15.53;58.11
23176;BME280;19910;42.652;23.332;2023-04-19T11:27:31;94091.59;;;15.37;57.97
23176;BME280;19910;42.652;23.332;2023-04-19T11:30:01;94063.09;;;15.64;58.67
23176;BME280;19910;42.652;23.332;2023-04-19T11:32:30;94080.22;;;15.61;58.80
23176;BME280;19910;42.652;23.332;2023-04-19T11:34:57;94087.06;;;15.48;57.72
23176;BME280;19910;42.652;23.332;2023-04-19T11:37:23;94090.69;;;15.26;57.78
23176;BME280;19910;42.652;23.332;2023-04-19T11:39:50;94076.72;;;15.31;59.98
23176;BME280;19910;42.652;23.332;2023-04-19T11:42:18;94074.25;;;15.86;57.31
23176;BME280;19910;42.652;23.332;2023-04-19T11:44:49;94066.19;;;16.41;55.22
23176;BME280;19910;42.652;23.332;2023-04-19T11:47:16;94071.34;;;16.05;54.44
23176;BME280;19910;42.652;23.332;2023-04-19T11:49:45;94062.25;;;16.34;55.22
23176;BME280;19910;42.652;23.332;2023-04-19T11:52:19;94064.06;;;15.49;54.91
23176;BME280;19910;42.652;23.332;2023-04-19T11:54:46;94061.63;;;15.71;54.69
23176;BME280;19910;42.652;23.332;2023-04-19T11:57:13;94075.97;;;15.34;54.85
23176;BME280;19910;42.652;23.332;2023-04-19T12:00:01;94062.19;;;15.53;55.62
23176;BME280;19910;42.652;23.332;2023-04-19T12:02:29;94056.59;;;16.17;54.62
23176;BME280;19910;42.652;23.332;2023-04-19T12:05:06;94058.84;;;16.04;52.67
23176;BME280;19910;42.652;23.332;2023-04-19T12:07:33;94056.19;;;16.11;52.25
23176;BME280;19910;42.652;23.332;2023-04-19T12:10:07;94053.97;;;16.27;54.30
23176;BME280;19910;42.652;23.332;2023-04-19T12:12:35;94052.69;;;16.14;53.55
23176;BME280;19910;42.652;23.332;2023-04-19T12:15:02;94040.63;;;16.63;52.52
23176;BME280;19910;42.652;23.332;2023-04-19T12:17:29;94043.19;;;17.00;52.62
23176;BME280;19910;42.652;23.332;2023-04-19T12:19:57;94041.59;;;16.95;51.81
23176;BME280;19910;42.652;23.332;2023-04-19T12:22:24;94041.50;;;16.78;51.54
23176;BME280;19910;42.652;23.332;2023-04-19T12:24:52;94042.47;;;17.10;49.47
23176;BME280;19910;42.652;23.332;2023-04-19T12:27:20;94039.75;;;17.14;47.96
23176;BME280;19910;42.652;23.332;2023-04-19T12:29:47;94038.63;;;17.22;50.39
23176;BME280;19910;42.652;23.332;2023-04-19T12:32:13;94040.81;;;16.91;49.24
23176;BME280;19910;42.652;23.332;2023-04-19T12:34:40;94037.56;;;16.75;49.35
23176;BME280;19910;42.652;23.332;2023-04-19T12:37:09;94036.72;;;16.64;47.29
23176;BME280;19910;42.652;23.332;2023-04-19T12:39:35;94034.47;;;16.77;48.59
23176;BME280;19910;42.652;23.332;2023-04-19T12:42:03;94041.47;;;16.74;50.02
23176;BME280;19910;42.652;23.332;2023-04-19T12:44:30;94026.59;;;16.72;50.76
23176;BME280;19910;42.652;23.332;2023-04-19T12:46:57;94031.59;;;17.28;50.45
23176;BME280;19910;42.652;23.332;2023-04-19T12:49:23;94030.94;;;17.56;51.22
23176;BME280;19910;42.652;23.332;2023-04-19T12:51:50;94035.25;;;16.77;51.92
23176;BME280;19910;42.652;23.332;2023-04-19T12:54:18;94034.59;;;17.01;50.68
23176;BME280;19910;42.652;23.332;2023-04-19T12:56:45;94023.41;;;17.28;51.14
23176;BME280;19910;42.652;23.332;2023-04-19T12:59:12;94029.81;;;16.84;51.46
23176;BME280;19910;42.652;23.332;2023-04-19T13:01:39;94030.03;;;17.20;51.90
23176;BME280;19910;42.652;23.332;2023-04-19T13:04:06;94031.59;;;17.21;50.91